createdAt,value
2022-08-05T00:00:16.288Z,28.22
2022-08-05T00:02:51.337Z,28.13
2022-08-05T00:06:02.867Z,28.20
2022-08-05T00:08:19.769Z,28.08
2022-08-05T00:11:02.693Z,28.14
2022-08-05T00:13:39.084Z,28.03
2022-08-05T00:16:10.833Z,28.18
2022-08-05T00:18:41.101Z,28.32
2022-08-05T00:21:09.606Z,28.38
2022-08-05T00:23:46.250Z,28.24
2022-08-05T00:26:21.049Z,28.33
2022-08-05T00:28:52.065Z,28.26
2022-08-05T00:31:53.427Z,28.21
2022-08-05T00:34:55.925Z,28.05
2022-08-05T00:37:09.802Z,27.86
2022-08-05T00:39:44.030Z,27.75
2022-08-05T00:42:31.515Z,27.68
2022-08-05T00:44:59.662Z,27.76
2022-08-05T00:47:53.200Z,27.53
2022-08-05T00:50:15.211Z,27.43
2022-08-05T00:52:42.362Z,27.49
2022-08-05T00:55:12.693Z,27.60
2022-08-05T00:57:55.488Z,27.63
2022-08-05T01:00:30.370Z,27.66
2022-08-05T01:02:59.695Z,27.72
2022-08-05T01:05:27.828Z,27.65
2022-08-05T01:08:42.112Z,27.71
2022-08-05T01:10:52.896Z,27.78
2022-08-05T01:13:58.967Z,27.71
2022-08-05T01:16:31.892Z,27.68
2022-08-05T01:19:01.557Z,27.58
2022-08-05T01:21:45.894Z,27.51
2022-08-05T01:24:23.844Z,27.67
2022-08-05T01:26:53.973Z,27.60
2022-08-05T01:29:45.589Z,27.42
2022-08-05T01:32:18.670Z,27.35
2022-08-05T01:34:48.594Z,27.46
2022-08-05T01:37:24.523Z,27.36
2022-08-05T01:39:54.971Z,27.16
2022-08-05T01:42:27.779Z,27.06
2022-08-05T01:44:56.830Z,27.01
2022-08-05T01:47:38.959Z,27.12
2022-08-05T01:50:29.372Z,27.16
2022-08-05T01:53:00.061Z,27.27
2022-08-05T01:55:28.713Z,27.36
2022-08-05T01:58:11.775Z,27.29
2022-08-05T02:00:49.510Z,27.30
2022-08-05T02:03:29.279Z,27.38
2022-08-05T02:06:03.609Z,27.39
2022-08-05T02:08:58.294Z,27.46
2022-08-05T02:11:33.259Z,27.49
2022-08-05T02:14:05.312Z,27.44
2022-08-05T02:16:41.709Z,27.31
2022-08-05T02:19:18.910Z,27.17
2022-08-05T02:21:59.562Z,27.18
2022-08-05T02:24:28.399Z,27.19
2022-08-05T02:27:00.134Z,27.01
2022-08-05T02:29:59.496Z,26.98
2022-08-05T02:32:31.400Z,26.92
2022-08-05T02:35:01.969Z,26.92
2022-08-05T02:37:38.742Z,26.82
2022-08-05T02:40:07.019Z,26.80
2022-08-05T02:42:37.733Z,26.71
2022-08-05T02:45:07.045Z,26.70
2022-08-05T02:48:06.506Z,26.62
2022-08-05T02:50:24.761Z,26.60
2022-08-05T02:52:52.747Z,26.55
2022-08-05T02:55:52.123Z,26.54
2022-08-05T02:58:11.717Z,26.57
2022-08-05T03:00:41.095Z,26.55
2022-08-05T03:03:15.453Z,26.60
2022-08-05T03:06:55.567Z,26.68
2022-08-05T03:08:31.743Z,26.54
2022-08-05T03:11:41.277Z,26.49
2022-08-05T03:13:51.036Z,26.33
2022-08-05T03:16:29.443Z,26.34
2022-08-05T03:18:59.753Z,26.40
2022-08-05T03:21:28.893Z,26.44
2022-08-05T03:24:00.753Z,26.38
2022-08-05T03:26:32.325Z,26.17
2022-08-05T03:28:59.906Z,26.19
2022-08-05T03:31:55.651Z,26.28
2022-08-05T03:34:15.135Z,26.19
2022-08-05T03:36:42.684Z,26.11
2022-08-05T03:39:12.961Z,26.11
2022-08-05T03:41:47.089Z,26.16
2022-08-05T03:44:19.957Z,26.25
2022-08-05T03:46:47.597Z,26.26
2022-08-05T03:49:16.698Z,26.27
2022-08-05T03:52:48.602Z,26.18
2022-08-05T03:55:50.145Z,26.16
2022-08-05T03:57:41.328Z,26.06
2022-08-05T04:00:11.621Z,26.17
2022-08-05T04:02:51.932Z,26.16
2022-08-05T04:05:19.934Z,26.17
2022-08-05T04:07:57.181Z,26.32
2022-08-05T04:10:27.729Z,26.30
2022-08-05T04:12:59.023Z,26.50
2022-08-05T04:15:32.722Z,26.69
2022-08-05T04:18:06.645Z,26.81
2022-08-05T04:20:35.094Z,27.09
2022-08-05T04:23:02.834Z,27.05
2022-08-05T04:25:56.693Z,27.03
2022-08-05T04:28:18.371Z,27.05
2022-08-05T04:30:45.787Z,27.03
2022-08-05T04:33:13.504Z,26.93
2022-08-05T04:36:10.725Z,27.06
2022-08-05T04:38:39.160Z,27.18
2022-08-05T04:41:09.463Z,26.98
2022-08-05T04:43:40.684Z,26.95
2022-08-05T04:46:14.336Z,26.92
2022-08-05T04:48:58.731Z,26.72
2022-08-05T04:51:26.175Z,26.77
2022-08-05T04:53:58.345Z,26.69
2022-08-05T04:56:35.096Z,27.04
2022-08-05T04:59:21.681Z,27.24
2022-08-05T05:02:35.240Z,27.31
2022-08-05T05:04:43.979Z,27.42
2022-08-05T05:07:17.183Z,27.69
2022-08-05T05:09:45.332Z,27.87
2022-08-05T05:12:12.466Z,27.95
2022-08-05T05:14:49.549Z,27.96
2022-08-05T05:17:23.446Z,28.01
2022-08-05T05:19:55.155Z,28.09
2022-08-05T05:22:26.378Z,28.17
2022-08-05T05:24:59.055Z,28.21
2022-08-05T05:27:44.586Z,28.33
2022-08-05T05:30:29.533Z,28.64
2022-08-05T05:33:00.531Z,28.29
2022-08-05T05:35:34.159Z,28.28
2022-08-05T05:38:09.160Z,28.48
2022-08-05T05:40:42.415Z,28.46
2022-08-05T05:43:15.105Z,28.50
2022-08-05T05:45:49.660Z,28.59
2022-08-05T05:48:16.877Z,28.70
2022-08-05T05:50:44.643Z,28.99
2022-08-05T05:53:21.215Z,29.05
2022-08-05T05:55:52.429Z,29.14
2022-08-05T05:58:31.428Z,29.35
2022-08-05T06:01:04.892Z,29.28
2022-08-05T06:04:01.138Z,29.56
2022-08-05T06:06:30.953Z,29.47
2022-08-05T06:08:58.719Z,29.49
2022-08-05T06:11:26.021Z,29.53
2022-08-05T06:13:53.973Z,29.53
2022-08-05T06:16:31.067Z,29.76
2022-08-05T06:19:01.157Z,29.96
2022-08-05T06:21:36.707Z,30.09
2022-08-05T06:24:11.273Z,30.16
2022-08-05T06:26:38.909Z,30.12
2022-08-05T06:29:23.617Z,30.17
2022-08-05T06:31:53.131Z,30.31
2022-08-05T06:34:20.278Z,30.55
2022-08-05T06:36:57.187Z,30.77
2022-08-05T06:39:27.919Z,31.11
2022-08-05T06:42:01.356Z,31.44
2022-08-05T06:44:34.732Z,31.92
2022-08-05T06:47:02.222Z,32.72
2022-08-05T06:50:00.251Z,33.01
2022-08-05T06:52:37.816Z,33.15
2022-08-05T06:55:08.960Z,33.00
2022-08-05T06:57:57.257Z,32.98
2022-08-05T07:00:25.561Z,32.74
2022-08-05T07:02:53.587Z,32.86
2022-08-05T07:05:23.408Z,32.53
2022-08-05T07:07:59.088Z,32.66
2022-08-05T07:10:32.290Z,32.77
2022-08-05T07:13:56.981Z,33.23
2022-08-05T07:17:56.367Z,33.22
2022-08-05T07:19:11.064Z,33.56
2022-08-05T07:22:00.292Z,33.16
2022-08-05T07:24:28.827Z,33.36
2022-08-05T07:26:57.238Z,33.03
2022-08-05T07:30:22.339Z,33.33
2022-08-05T07:32:12.369Z,33.92
2022-08-05T07:34:42.401Z,34.21
2022-08-05T07:37:21.500Z,34.04
2022-08-05T07:40:26.970Z,33.87
2022-08-05T07:42:36.399Z,34.40
2022-08-05T07:45:03.759Z,34.56
2022-08-05T07:47:42.302Z,34.63
2022-08-05T07:50:10.189Z,34.85
2022-08-05T07:52:40.787Z,34.54
2022-08-05T07:55:16.004Z,35.09
2022-08-05T07:58:02.768Z,34.97
2022-08-05T08:00:30.660Z,35.11
2022-08-05T08:03:14.269Z,34.84
2022-08-05T08:05:49.464Z,35.16
2022-08-05T08:08:17.068Z,35.31
2022-08-05T08:10:49.180Z,35.26
2022-08-05T08:13:22.095Z,35.16
2022-08-05T08:16:49.851Z,35.25
2022-08-05T08:18:43.704Z,35.61
2022-08-05T08:21:17.875Z,35.40
2022-08-05T08:24:02.012Z,35.58
2022-08-05T08:26:32.218Z,35.57
2022-08-05T08:29:21.960Z,35.86
2022-08-05T08:31:48.390Z,35.80
2022-08-05T08:34:16.634Z,35.94
2022-08-05T08:36:52.492Z,36.28
2022-08-05T08:39:23.507Z,36.40
2022-08-05T08:41:59.882Z,35.93
2022-08-05T08:45:23.211Z,35.80
2022-08-05T08:47:22.334Z,36.30
2022-08-05T08:50:30.340Z,35.90
2022-08-05T08:52:56.794Z,35.85
2022-08-05T08:55:32.147Z,35.86
2022-08-05T08:58:12.917Z,36.38
2022-08-05T09:00:41.680Z,36.26
2022-08-05T09:03:09.467Z,36.75
2022-08-05T09:05:38.732Z,36.64
2022-08-05T09:08:26.716Z,36.46
2022-08-05T09:10:54.686Z,36.86
2022-08-05T09:13:23.526Z,36.53
2022-08-05T09:15:51.249Z,36.89
2022-08-05T09:18:18.378Z,36.70
2022-08-05T09:20:45.890Z,36.62
2022-08-05T09:23:19.748Z,36.48
2022-08-05T09:26:03.193Z,36.49
2022-08-05T09:28:34.684Z,36.48
2022-08-05T09:31:22.068Z,36.53
2022-08-05T09:33:53.325Z,36.98
2022-08-05T09:36:27.883Z,36.81
2022-08-05T09:39:18.254Z,37.38
2022-08-05T09:41:56.353Z,36.99
2022-08-05T09:44:34.791Z,36.98
2022-08-05T09:47:10.442Z,37.20
2022-08-05T09:50:01.039Z,37.10
2022-08-05T09:52:33.749Z,37.56
2022-08-05T09:55:58.237Z,37.55
2022-08-05T09:57:59.739Z,37.75
2022-08-05T10:00:30.765Z,38.34
2022-08-05T10:03:08.535Z,37.89
2022-08-05T10:05:36.798Z,38.04
2022-08-05T10:08:34.653Z,38.20
2022-08-05T10:10:54.166Z,38.00
2022-08-05T10:13:45.551Z,37.87
2022-08-05T10:16:28.592Z,37.94
2022-08-05T10:18:55.803Z,38.00
2022-08-05T10:21:24.263Z,38.37
2022-08-05T10:23:59.587Z,38.46
2022-08-05T10:26:31.703Z,38.92
2022-08-05T10:29:00.726Z,38.34
2022-08-05T10:32:53.302Z,37.94
2022-08-05T10:34:16.792Z,38.38
2022-08-05T10:36:44.824Z,38.65
2022-08-05T10:39:24.221Z,38.13
2022-08-05T10:42:01.924Z,38.53
2022-08-05T10:44:31.240Z,38.16
2022-08-05T10:46:58.395Z,38.14
2022-08-05T10:49:33.498Z,38.23
2022-08-05T10:52:36.479Z,38.50
2022-08-05T10:55:05.249Z,38.18
2022-08-05T10:57:33.894Z,38.45
2022-08-05T11:00:18.741Z,38.69
2022-08-05T11:03:24.452Z,38.70
2022-08-05T11:06:15.283Z,38.35
2022-08-05T11:09:02.339Z,38.40
2022-08-05T11:11:44.563Z,38.38
2022-08-05T11:17:57.101Z,38.77
2022-08-05T11:20:34.914Z,38.45
2022-08-05T11:23:22.070Z,38.72
2022-08-05T11:26:06.279Z,38.83
2022-08-05T11:28:36.367Z,39.01
2022-08-05T11:31:06.149Z,39.30
2022-08-05T11:33:46.206Z,39.27
2022-08-05T11:36:34.221Z,39.28
2022-08-05T11:39:06.200Z,39.05
2022-08-05T11:42:00.835Z,39.27
2022-08-05T11:44:53.236Z,39.55
2022-08-05T11:47:15.301Z,39.27
2022-08-05T11:49:49.723Z,39.19
2022-08-05T11:52:29.198Z,39.63
2022-08-05T11:54:58.176Z,39.62
2022-08-05T11:57:29.283Z,39.33
2022-08-05T11:59:58.182Z,39.59
2022-08-05T12:02:33.363Z,39.21
2022-08-05T12:05:07.292Z,39.39
2022-08-05T12:08:09.491Z,39.00
2022-08-05T12:10:43.549Z,39.45
2022-08-05T12:13:27.703Z,39.17
2022-08-05T12:16:14.829Z,38.69
2022-08-05T12:18:52.150Z,38.95
2022-08-05T12:21:23.795Z,39.10
2022-08-05T12:23:51.938Z,38.97
2022-08-05T12:26:19.076Z,38.65
2022-08-05T12:28:46.450Z,38.95
2022-08-05T12:31:23.139Z,38.81
2022-08-05T12:34:00.292Z,39.19
2022-08-05T12:36:29.047Z,39.07
2022-08-05T12:38:57.289Z,39.32
2022-08-05T12:41:34.175Z,39.27
2022-08-05T12:44:33.322Z,39.16
2022-08-05T12:47:02.074Z,39.28
2022-08-05T12:50:02.056Z,39.26
2022-08-05T12:52:35.384Z,39.23
2022-08-05T12:55:22.092Z,39.24
2022-08-05T12:58:49.663Z,39.29
2022-08-05T13:02:00.555Z,39.16
2022-08-05T13:03:32.517Z,39.22
2022-08-05T13:06:02.762Z,39.08
2022-08-05T13:08:30.293Z,38.82
2022-08-05T13:11:01.207Z,38.79
2022-08-05T13:14:06.133Z,39.00
2022-08-05T13:16:17.333Z,39.26
2022-08-05T13:18:51.372Z,38.74
2022-08-05T13:21:18.482Z,38.89
2022-08-05T13:23:50.708Z,39.18
2022-08-05T13:26:18.188Z,39.06
2022-08-05T13:28:45.304Z,38.87
2022-08-05T13:31:14.368Z,38.65
2022-08-05T13:34:22.600Z,38.34
2022-08-05T13:36:29.531Z,38.60
2022-08-05T13:38:56.716Z,38.92
2022-08-05T13:41:35.105Z,38.71
2022-08-05T13:44:05.181Z,38.29
2022-08-05T13:46:44.229Z,38.55
2022-08-05T13:49:20.446Z,38.82
2022-08-05T13:51:48.575Z,38.66
2022-08-05T13:54:16.498Z,38.78
2022-08-05T13:56:50.889Z,38.59
2022-08-05T13:59:24.032Z,38.39
2022-08-05T14:01:57.632Z,38.42
2022-08-05T14:04:50.211Z,38.73
2022-08-05T14:07:59.535Z,38.91
2022-08-05T14:10:19.048Z,38.93
2022-08-05T14:12:55.170Z,38.38
2022-08-05T14:16:04.816Z,38.49
2022-08-05T14:18:14.600Z,38.16
2022-08-05T14:20:47.261Z,38.23
2022-08-05T14:23:23.470Z,38.35
2022-08-05T14:25:54.101Z,38.49
2022-08-05T14:28:26.363Z,38.46
2022-08-05T14:30:54.974Z,38.39
2022-08-05T14:33:23.890Z,38.56
2022-08-05T14:35:54.289Z,38.32
2022-08-05T14:38:33.126Z,38.25
2022-08-05T14:41:05.974Z,38.31
2022-08-05T14:43:59.106Z,38.10
2022-08-05T14:46:29.156Z,38.15
2022-08-05T14:49:06.976Z,38.22
2022-08-05T14:51:38.199Z,37.69
2022-08-05T14:54:27.945Z,37.79
2022-08-05T14:56:55.710Z,37.98
2022-08-05T14:59:23.382Z,38.00
2022-08-05T15:01:51.357Z,37.70
2022-08-05T15:04:22.331Z,37.56
2022-08-05T15:06:50.512Z,37.38
2022-08-05T15:09:53.955Z,37.37
2022-08-05T15:12:09.045Z,37.32
2022-08-05T15:14:48.467Z,37.37
2022-08-05T15:17:47.753Z,37.40
2022-08-05T15:20:06.072Z,37.29
2022-08-05T15:22:33.414Z,37.29
2022-08-05T15:25:00.732Z,37.24
2022-08-05T15:27:42.854Z,37.36
2022-08-05T15:30:14.173Z,37.20
2022-08-05T15:32:43.662Z,37.05
2022-08-05T15:35:12.464Z,36.94
2022-08-05T15:38:32.840Z,36.96
2022-08-05T15:40:59.937Z,36.94
2022-08-05T15:43:20.051Z,36.86
2022-08-05T15:46:00.233Z,36.92
2022-08-05T15:48:28.380Z,37.07
2022-08-05T15:50:56.691Z,36.97
2022-08-05T15:53:26.320Z,37.00
2022-08-05T15:56:02.466Z,37.00
2022-08-05T15:58:36.907Z,37.00
2022-08-05T16:01:16.733Z,37.00
2022-08-05T16:03:48.295Z,36.84
2022-08-05T16:06:20.131Z,36.82
2022-08-05T16:08:50.358Z,36.66
2022-08-05T16:11:18.639Z,36.71
2022-08-05T16:13:48.483Z,36.75
2022-08-05T16:16:25.127Z,36.69
2022-08-05T16:18:53.118Z,36.69
2022-08-05T16:21:20.548Z,36.54
2022-08-05T16:24:12.802Z,36.64
2022-08-05T16:26:51.586Z,36.58
2022-08-05T16:29:20.123Z,36.67
2022-08-05T16:31:57.084Z,36.68
2022-08-05T16:34:25.474Z,36.59
2022-08-05T16:36:53.983Z,36.71
2022-08-05T16:39:21.467Z,36.68
2022-08-05T16:42:14.007Z,36.57
2022-08-05T16:44:44.308Z,36.36
2022-08-05T16:47:28.849Z,36.51
2022-08-05T16:50:06.863Z,36.51
2022-08-05T16:52:35.759Z,36.43
2022-08-05T16:55:04.333Z,36.51
2022-08-05T16:57:53.097Z,36.48
2022-08-05T17:00:26.236Z,36.46
2022-08-05T17:03:02.888Z,36.36
2022-08-05T17:05:31.262Z,36.17
2022-08-05T17:07:58.462Z,36.09
2022-08-05T17:10:26.441Z,36.09
2022-08-05T17:13:00.302Z,36.13
2022-08-05T17:15:29.518Z,36.11
2022-08-05T17:18:17.468Z,36.17
2022-08-05T17:20:46.246Z,35.99
2022-08-05T17:24:03.181Z,35.94
2022-08-05T17:26:00.703Z,35.88
2022-08-05T17:28:29.442Z,35.93
2022-08-05T17:30:57.147Z,35.86
2022-08-05T17:33:25.660Z,35.78
2022-08-05T17:36:08.050Z,35.80
2022-08-05T17:38:37.328Z,35.82
2022-08-05T17:41:11.611Z,35.76
2022-08-05T17:43:54.917Z,35.62
2022-08-05T17:46:23.820Z,35.59
2022-08-05T17:48:53.898Z,35.44
2022-08-05T17:51:21.015Z,35.38
2022-08-05T17:53:50.869Z,35.22
2022-08-05T17:56:22.758Z,35.04
2022-08-05T17:58:51.105Z,34.87
2022-08-05T18:01:18.633Z,34.81
2022-08-05T18:03:58.407Z,34.72
2022-08-05T18:06:31.130Z,34.63
2022-08-05T18:08:58.845Z,34.53
2022-08-05T18:11:32.598Z,34.45
2022-08-05T18:14:03.186Z,34.33
2022-08-05T18:16:31.787Z,34.26
2022-08-05T18:18:59.003Z,34.17
2022-08-05T18:22:08.349Z,34.09
2022-08-05T18:24:16.705Z,34.08
2022-08-05T18:26:44.029Z,34.01
2022-08-05T18:29:13.068Z,33.93
2022-08-05T18:31:44.670Z,33.89
2022-08-05T18:34:13.154Z,33.86
2022-08-05T18:36:43.649Z,33.85
2022-08-05T18:39:41.962Z,33.82
2022-08-05T18:42:06.155Z,33.79
2022-08-05T18:44:49.247Z,33.75
2022-08-05T18:47:22.902Z,33.65
2022-08-05T18:50:12.664Z,33.63
2022-08-05T18:52:50.562Z,33.56
2022-08-05T18:55:19.383Z,33.51
2022-08-05T18:57:53.118Z,33.44
2022-08-05T19:00:25.055Z,33.42
2022-08-05T19:02:54.589Z,33.35
2022-08-05T19:06:11.945Z,33.27
2022-08-05T19:08:13.385Z,33.29
2022-08-05T19:10:42.550Z,33.37
2022-08-05T19:13:12.275Z,33.25
2022-08-05T19:15:59.407Z,33.19
2022-08-05T19:18:30.622Z,33.18
2022-08-05T19:20:59.518Z,33.56
2022-08-05T19:24:06.997Z,33.71
2022-08-05T19:26:16.456Z,33.68
2022-08-05T19:28:43.840Z,33.47
2022-08-05T19:31:13.345Z,33.45
2022-08-05T19:33:48.339Z,33.33
2022-08-05T19:36:29.325Z,33.32
2022-08-05T19:39:00.638Z,33.22
2022-08-05T19:41:58.033Z,32.91
2022-08-05T19:44:16.948Z,32.74
2022-08-05T19:46:45.813Z,32.68
2022-08-05T19:49:17.161Z,32.71
2022-08-05T19:52:08.238Z,32.46
2022-08-05T19:54:35.447Z,32.53
2022-08-05T19:57:08.410Z,32.34
2022-08-05T19:59:54.764Z,32.25
2022-08-05T20:02:26.031Z,32.15
2022-08-05T20:04:54.799Z,32.11
2022-08-05T20:07:45.856Z,32.18
2022-08-05T20:10:13.214Z,32.20
2022-08-05T20:12:48.196Z,32.15
2022-08-05T20:15:47.932Z,32.19
2022-08-05T20:18:10.819Z,32.11
2022-08-05T20:20:55.017Z,32.22
2022-08-05T20:23:39.749Z,32.29
2022-08-05T20:26:16.248Z,32.13
2022-08-05T20:28:48.662Z,32.17
2022-08-05T20:31:17.034Z,32.15
2022-08-05T20:33:45.208Z,32.18
2022-08-05T20:36:16.472Z,32.12
2022-08-05T20:38:53.275Z,32.29
2022-08-05T20:41:23.959Z,32.08
2022-08-05T20:43:59.080Z,32.24
2022-08-05T20:46:30.262Z,32.25
2022-08-05T20:48:59.069Z,32.14
2022-08-05T20:51:26.643Z,31.94
2022-08-05T20:53:55.291Z,31.86
2022-08-05T20:56:29.018Z,31.90
2022-08-05T20:58:59.965Z,31.85
2022-08-05T21:01:41.883Z,31.90
2022-08-05T21:04:10.651Z,31.86
2022-08-05T21:06:45.916Z,31.87
2022-08-05T21:09:14.324Z,31.90
2022-08-05T21:12:10.832Z,31.81
2022-08-05T21:14:32.038Z,31.83
2022-08-05T21:17:03.158Z,31.76
2022-08-05T21:19:46.807Z,31.74
2022-08-05T21:22:17.656Z,31.60
2022-08-05T21:24:48.921Z,31.35
2022-08-05T21:27:20.574Z,31.20
2022-08-05T21:29:54.168Z,31.09
2022-08-05T21:32:27.201Z,31.04
2022-08-05T21:35:06.704Z,30.84
2022-08-05T21:37:41.292Z,30.78
2022-08-05T21:40:13.625Z,30.85
2022-08-05T21:42:44.467Z,30.73
2022-08-05T21:45:13.937Z,30.65
2022-08-05T21:47:56.873Z,30.73
2022-08-05T21:50:25.859Z,30.69
2022-08-05T21:52:53.572Z,30.70
2022-08-05T21:56:01.110Z,30.78
2022-08-05T21:58:12.907Z,30.76
2022-08-05T22:00:40.318Z,30.71
2022-08-05T22:03:15.279Z,30.72
2022-08-05T22:05:48.642Z,30.74
2022-08-05T22:08:22.569Z,30.73
2022-08-05T22:10:51.751Z,30.62
2022-08-05T22:14:19.953Z,30.61
2022-08-05T22:16:32.257Z,30.78
2022-08-05T22:18:58.771Z,31.28
2022-08-05T22:21:26.494Z,30.89
2022-08-05T22:24:13.227Z,30.80
2022-08-05T22:27:19.136Z,30.83
2022-08-05T22:29:46.329Z,30.77
2022-08-05T22:32:17.478Z,30.67
2022-08-05T22:34:45.800Z,30.61
2022-08-05T22:37:14.538Z,30.75
2022-08-05T22:39:42.342Z,30.85
2022-08-05T22:42:15.509Z,30.81
2022-08-05T22:44:56.439Z,30.38
2022-08-05T22:47:29.406Z,30.36
2022-08-05T22:50:19.733Z,30.42
2022-08-05T22:52:47.493Z,30.45
2022-08-05T22:55:19.571Z,30.48
2022-08-05T22:57:48.850Z,30.28
2022-08-05T23:00:18.391Z,30.11
2022-08-05T23:02:48.749Z,30.05
2022-08-05T23:05:16.153Z,29.95
2022-08-05T23:07:45.420Z,30.02
2022-08-05T23:10:20.149Z,30.02
2022-08-05T23:12:54.897Z,30.06
2022-08-05T23:15:27.042Z,30.10
2022-08-05T23:18:01.818Z,30.05
2022-08-05T23:20:31.514Z,29.97
2022-08-05T23:22:59.517Z,29.96
2022-08-05T23:25:53.470Z,29.99
2022-08-05T23:28:15.959Z,30.04
2022-08-05T23:30:53.608Z,30.07
2022-08-05T23:33:26.438Z,30.14
2022-08-05T23:36:13.617Z,30.10
2022-08-05T23:38:41.673Z,30.04
2022-08-05T23:41:10.486Z,30.04
2022-08-05T23:44:03.580Z,30.04
2022-08-05T23:46:25.127Z,29.84
2022-08-05T23:49:00.919Z,29.72
2022-08-05T23:51:53.560Z,29.43
2022-08-05T23:54:29.871Z,29.41
2022-08-05T23:57:03.930Z,29.54
